sensor_id;sensor_type;location;lat;lon;timestamp;temperature;humidity
6357;DHT22;3211;53.452;-2.264;2022-12-17T00:01:31;0.80;99.90
6357;DHT22;3211;53.452;-2.264;2022-12-17T00:04:16;0.80;99.90
6357;DHT22;3211;53.452;-2.264;2022-12-17T00:07:00;0.70;99.90
6357;DHT22;3211;53.452;-2.264;2022-12-17T00:09:46;0.70;99.90
6357;DHT22;3211;53.452;-2.264;2022-12-17T00:12:30;0.70;99.90
6357;DHT22;3211;53.452;-2.264;2022-12-17T00:15:15;0.70;99.90
6357;DHT22;3211;53.452;-2.264;2022-12-17T00:18:03;0.70;99.90
6357;DHT22;3211;53.452;-2.264;2022-12-17T00:20:53;0.70;99.90
6357;DHT22;3211;53.452;-2.264;2022-12-17T00:23:37;0.70;99.90
6357;DHT22;3211;53.452;-2.264;2022-12-17T00:26:23;0.60;99.90
6357;DHT22;3211;53.452;-2.264;2022-12-17T00:29:04;0.70;99.90
6357;DHT22;3211;53.452;-2.264;2022-12-17T00:31:48;0.60;99.90
6357;DHT22;3211;53.452;-2.264;2022-12-17T00:34:33;0.60;99.90
6357;DHT22;3211;53.452;-2.264;2022-12-17T00:37:18;0.60;99.90
6357;DHT22;3211;53.452;-2.264;2022-12-17T00:40:02;0.60;99.90
6357;DHT22;3211;53.452;-2.264;2022-12-17T00:42:58;0.60;99.90
6357;DHT22;3211;53.452;-2.264;2022-12-17T00:45:42;0.60;99.90
6357;DHT22;3211;53.452;-2.264;2022-12-17T00:48:27;0.60;99.90
6357;DHT22;3211;53.452;-2.264;2022-12-17T00:51:11;0.60;99.90
6357;DHT22;3211;53.452;-2.264;2022-12-17T00:53:55;0.60;99.90
6357;DHT22;3211;53.452;-2.264;2022-12-17T00:56:40;0.60;99.90
6357;DHT22;3211;53.452;-2.264;2022-12-17T00:59:26;0.70;99.90
6357;DHT22;3211;53.452;-2.264;2022-12-17T01:02:10;0.60;99.90
6357;DHT22;3211;53.452;-2.264;2022-12-17T01:04:55;0.60;99.90
6357;DHT22;3211;53.452;-2.264;2022-12-17T01:07:39;0.60;99.90
6357;DHT22;3211;53.452;-2.264;2022-12-17T01:10:23;0.60;99.90
6357;DHT22;3211;53.452;-2.264;2022-12-17T01:13:07;0.60;99.90
6357;DHT22;3211;53.452;-2.264;2022-12-17T01:15:53;0.50;99.90
6357;DHT22;3211;53.452;-2.264;2022-12-17T01:18:37;0.50;99.90
6357;DHT22;3211;53.452;-2.264;2022-12-17T01:21:18;0.50;99.90
6357;DHT22;3211;53.452;-2.264;2022-12-17T01:24:03;0.50;99.90
6357;DHT22;3211;53.452;-2.264;2022-12-17T01:26:52;0.50;99.90
6357;DHT22;3211;53.452;-2.264;2022-12-17T01:29:37;0.50;99.90
6357;DHT22;3211;53.452;-2.264;2022-12-17T01:32:23;0.50;99.90
6357;DHT22;3211;53.452;-2.264;2022-12-17T01:35:07;0.50;99.90
6357;DHT22;3211;53.452;-2.264;2022-12-17T01:37:52;0.40;99.90
6357;DHT22;3211;53.452;-2.264;2022-12-17T01:40:36;0.50;99.90
6357;DHT22;3211;53.452;-2.264;2022-12-17T01:43:31;0.50;99.90
6357;DHT22;3211;53.452;-2.264;2022-12-17T01:46:17;0.50;99.90
6357;DHT22;3211;53.452;-2.264;2022-12-17T01:49:03;0.50;99.90
6357;DHT22;3211;53.452;-2.264;2022-12-17T01:51:48;0.50;99.90
6357;DHT22;3211;53.452;-2.264;2022-12-17T01:54:35;0.50;99.90
6357;DHT22;3211;53.452;-2.264;2022-12-17T01:57:17;0.50;99.90
6357;DHT22;3211;53.452;-2.264;2022-12-17T02:00:05;0.60;99.90
6357;DHT22;3211;53.452;-2.264;2022-12-17T02:02:49;0.60;99.90
6357;DHT22;3211;53.452;-2.264;2022-12-17T02:05:48;0.70;99.90
6357;DHT22;3211;53.452;-2.264;2022-12-17T02:08:43;0.80;99.90
6357;DHT22;3211;53.452;-2.264;2022-12-17T02:11:37;0.80;99.90
6357;DHT22;3211;53.452;-2.264;2022-12-17T02:14:30;0.80;99.90
6357;DHT22;3211;53.452;-2.264;2022-12-17T02:17:19;0.90;99.90
6357;DHT22;3211;53.452;-2.264;2022-12-17T02:20:16;0.90;99.90
6357;DHT22;3211;53.452;-2.264;2022-12-17T02:23:11;1.00;99.90
6357;DHT22;3211;53.452;-2.264;2022-12-17T02:25:59;1.00;99.90
6357;DHT22;3211;53.452;-2.264;2022-12-17T02:28:48;1.10;99.90
6357;DHT22;3211;53.452;-2.264;2022-12-17T02:31:34;1.10;99.90
6357;DHT22;3211;53.452;-2.264;2022-12-17T02:34:18;1.20;99.90
6357;DHT22;3211;53.452;-2.264;2022-12-17T02:37:03;1.20;99.90
6357;DHT22;3211;53.452;-2.264;2022-12-17T02:39:48;1.20;99.90
6357;DHT22;3211;53.452;-2.264;2022-12-17T02:42:32;1.30;99.90
6357;DHT22;3211;53.452;-2.264;2022-12-17T02:45:18;1.30;99.90
6357;DHT22;3211;53.452;-2.264;2022-12-17T02:48:05;1.30;99.90
6357;DHT22;3211;53.452;-2.264;2022-12-17T02:50:50;1.30;99.90
6357;DHT22;3211;53.452;-2.264;2022-12-17T02:53:41;1.40;99.90
6357;DHT22;3211;53.452;-2.264;2022-12-17T02:56:23;1.50;99.90
6357;DHT22;3211;53.452;-2.264;2022-12-17T02:59:07;1.50;99.90
6357;DHT22;3211;53.452;-2.264;2022-12-17T03:01:53;1.50;99.90
6357;DHT22;3211;53.452;-2.264;2022-12-17T03:04:37;1.50;99.90
6357;DHT22;3211;53.452;-2.264;2022-12-17T03:07:22;1.50;99.90
6357;DHT22;3211;53.452;-2.264;2022-12-17T03:10:07;1.50;99.90
6357;DHT22;3211;53.452;-2.264;2022-12-17T03:12:51;1.50;99.90
6357;DHT22;3211;53.452;-2.264;2022-12-17T03:15:35;1.50;99.90
6357;DHT22;3211;53.452;-2.264;2022-12-17T03:18:21;1.60;99.90
6357;DHT22;3211;53.452;-2.264;2022-12-17T03:21:06;1.60;99.90
6357;DHT22;3211;53.452;-2.264;2022-12-17T03:23:50;1.50;99.90
6357;DHT22;3211;53.452;-2.264;2022-12-17T03:26:34;1.50;99.90
6357;DHT22;3211;53.452;-2.264;2022-12-17T03:29:19;1.50;99.90
6357;DHT22;3211;53.452;-2.264;2022-12-17T03:32:03;1.40;99.90
6357;DHT22;3211;53.452;-2.264;2022-12-17T03:34:49;1.50;99.90
6357;DHT22;3211;53.452;-2.264;2022-12-17T03:37:33;1.50;99.90
6357;DHT22;3211;53.452;-2.264;2022-12-17T03:40:17;1.40;99.90
6357;DHT22;3211;53.452;-2.264;2022-12-17T03:43:05;1.30;99.90
6357;DHT22;3211;53.452;-2.264;2022-12-17T03:45:51;1.30;99.90
6357;DHT22;3211;53.452;-2.264;2022-12-17T03:48:35;1.30;99.90
6357;DHT22;3211;53.452;-2.264;2022-12-17T03:51:21;1.30;99.90
6357;DHT22;3211;53.452;-2.264;2022-12-17T03:54:06;1.30;99.90
6357;DHT22;3211;53.452;-2.264;2022-12-17T03:56:50;1.40;99.90
6357;DHT22;3211;53.452;-2.264;2022-12-17T03:59:35;1.30;99.90
6357;DHT22;3211;53.452;-2.264;2022-12-17T04:02:19;1.40;99.90
6357;DHT22;3211;53.452;-2.264;2022-12-17T04:05:04;1.40;99.90
6357;DHT22;3211;53.452;-2.264;2022-12-17T04:07:50;1.40;99.90
6357;DHT22;3211;53.452;-2.264;2022-12-17T04:10:34;1.40;99.90
6357;DHT22;3211;53.452;-2.264;2022-12-17T04:13:19;1.40;99.90
6357;DHT22;3211;53.452;-2.264;2022-12-17T04:16:03;1.30;99.90
6357;DHT22;3211;53.452;-2.264;2022-12-17T04:18:48;1.30;99.90
6357;DHT22;3211;53.452;-2.264;2022-12-17T04:21:32;1.30;99.90
6357;DHT22;3211;53.452;-2.264;2022-12-17T04:24:18;1.20;99.90
6357;DHT22;3211;53.452;-2.264;2022-12-17T04:26:59;1.30;99.90
6357;DHT22;3211;53.452;-2.264;2022-12-17T04:29:43;1.30;99.90
6357;DHT22;3211;53.452;-2.264;2022-12-17T04:32:28;1.20;99.90
6357;DHT22;3211;53.452;-2.264;2022-12-17T04:35:20;1.20;99.90
6357;DHT22;3211;53.452;-2.264;2022-12-17T04:38:05;1.20;99.90
6357;DHT22;3211;53.452;-2.264;2022-12-17T04:40:51;1.20;99.90
6357;DHT22;3211;53.452;-2.264;2022-12-17T04:43:35;1.20;99.90
6357;DHT22;3211;53.452;-2.264;2022-12-17T04:46:19;1.20;99.90
6357;DHT22;3211;53.452;-2.264;2022-12-17T04:49:04;1.20;99.90
6357;DHT22;3211;53.452;-2.264;2022-12-17T04:51:48;1.10;99.90
6357;DHT22;3211;53.452;-2.264;2022-12-17T04:54:33;1.20;99.90
6357;DHT22;3211;53.452;-2.264;2022-12-17T04:57:27;1.20;99.90
6357;DHT22;3211;53.452;-2.264;2022-12-17T05:00:12;1.20;99.90
6357;DHT22;3211;53.452;-2.264;2022-12-17T05:03:03;1.20;99.90
6357;DHT22;3211;53.452;-2.264;2022-12-17T05:05:48;1.30;99.90
6357;DHT22;3211;53.452;-2.264;2022-12-17T05:08:32;1.30;99.90
6357;DHT22;3211;53.452;-2.264;2022-12-17T05:11:16;1.30;99.90
6357;DHT22;3211;53.452;-2.264;2022-12-17T05:14:02;1.40;99.90
6357;DHT22;3211;53.452;-2.264;2022-12-17T05:16:46;1.40;99.90
6357;DHT22;3211;53.452;-2.264;2022-12-17T05:19:31;1.40;99.90
6357;DHT22;3211;53.452;-2.264;2022-12-17T05:22:15;1.50;99.90
6357;DHT22;3211;53.452;-2.264;2022-12-17T05:25:00;1.50;99.90
6357;DHT22;3211;53.452;-2.264;2022-12-17T05:27:45;1.60;99.90
6357;DHT22;3211;53.452;-2.264;2022-12-17T05:30:33;1.60;99.90
6357;DHT22;3211;53.452;-2.264;2022-12-17T05:33:18;1.60;99.90
6357;DHT22;3211;53.452;-2.264;2022-12-17T05:36:03;1.70;99.90
6357;DHT22;3211;53.452;-2.264;2022-12-17T05:38:48;1.80;99.90
6357;DHT22;3211;53.452;-2.264;2022-12-17T05:41:33;1.80;99.90
6357;DHT22;3211;53.452;-2.264;2022-12-17T05:44:17;1.90;99.90
6357;DHT22;3211;53.452;-2.264;2022-12-17T05:47:03;2.00;99.90
6357;DHT22;3211;53.452;-2.264;2022-12-17T05:49:48;2.00;99.90
6357;DHT22;3211;53.452;-2.264;2022-12-17T05:52:32;2.00;99.90
6357;DHT22;3211;53.452;-2.264;2022-12-17T05:55:16;2.00;99.90
6357;DHT22;3211;53.452;-2.264;2022-12-17T05:58:02;2.10;99.90
6357;DHT22;3211;53.452;-2.264;2022-12-17T06:00:46;2.10;99.90
6357;DHT22;3211;53.452;-2.264;2022-12-17T06:03:32;2.10;99.90
6357;DHT22;3211;53.452;-2.264;2022-12-17T06:06:16;2.10;99.90
6357;DHT22;3211;53.452;-2.264;2022-12-17T06:09:01;2.10;99.90
6357;DHT22;3211;53.452;-2.264;2022-12-17T06:11:45;2.10;99.90
6357;DHT22;3211;53.452;-2.264;2022-12-17T06:14:29;2.20;99.90
6357;DHT22;3211;53.452;-2.264;2022-12-17T06:17:14;2.20;99.90
6357;DHT22;3211;53.452;-2.264;2022-12-17T06:20:00;2.10;99.90
6357;DHT22;3211;53.452;-2.264;2022-12-17T06:22:44;2.20;99.90
6357;DHT22;3211;53.452;-2.264;2022-12-17T06:25:28;2.30;99.90
6357;DHT22;3211;53.452;-2.264;2022-12-17T06:28:18;2.30;99.90
6357;DHT22;3211;53.452;-2.264;2022-12-17T06:31:03;2.30;99.90
6357;DHT22;3211;53.452;-2.264;2022-12-17T06:33:47;2.30;99.90
6357;DHT22;3211;53.452;-2.264;2022-12-17T06:36:33;2.30;99.90
6357;DHT22;3211;53.452;-2.264;2022-12-17T06:39:17;2.30;99.90
6357;DHT22;3211;53.452;-2.264;2022-12-17T06:42:01;2.30;99.90
6357;DHT22;3211;53.452;-2.264;2022-12-17T06:45:00;2.30;99.90
6357;DHT22;3211;53.452;-2.264;2022-12-17T06:47:44;2.30;99.90
6357;DHT22;3211;53.452;-2.264;2022-12-17T06:50:29;2.30;99.90
6357;DHT22;3211;53.452;-2.264;2022-12-17T06:53:15;2.30;99.90
6357;DHT22;3211;53.452;-2.264;2022-12-17T06:55:59;2.40;99.90
6357;DHT22;3211;53.452;-2.264;2022-12-17T06:58:44;2.40;99.90
6357;DHT22;3211;53.452;-2.264;2022-12-17T07:01:43;2.40;99.90
6357;DHT22;3211;53.452;-2.264;2022-12-17T07:04:27;2.50;99.90
6357;DHT22;3211;53.452;-2.264;2022-12-17T07:07:11;2.50;99.90
6357;DHT22;3211;53.452;-2.264;2022-12-17T07:09:57;2.50;99.90
6357;DHT22;3211;53.452;-2.264;2022-12-17T07:12:42;2.60;99.90
6357;DHT22;3211;53.452;-2.264;2022-12-17T07:15:26;2.70;99.90
6357;DHT22;3211;53.452;-2.264;2022-12-17T07:18:11;2.70;99.90
6357;DHT22;3211;53.452;-2.264;2022-12-17T07:20:55;2.70;99.90
6357;DHT22;3211;53.452;-2.264;2022-12-17T07:23:39;2.70;99.90
6357;DHT22;3211;53.452;-2.264;2022-12-17T07:26:25;2.70;99.90
6357;DHT22;3211;53.452;-2.264;2022-12-17T07:29:09;2.70;99.90
6357;DHT22;3211;53.452;-2.264;2022-12-17T07:31:53;2.70;99.90
6357;DHT22;3211;53.452;-2.264;2022-12-17T07:34:38;2.70;99.90
6357;DHT22;3211;53.452;-2.264;2022-12-17T07:37:22;2.70;99.90
6357;DHT22;3211;53.452;-2.264;2022-12-17T07:40:08;2.70;99.90
6357;DHT22;3211;53.452;-2.264;2022-12-17T07:42:53;2.70;99.90
6357;DHT22;3211;53.452;-2.264;2022-12-17T07:45:38;2.70;99.90
6357;DHT22;3211;53.452;-2.264;2022-12-17T07:48:22;2.70;99.90
6357;DHT22;3211;53.452;-2.264;2022-12-17T07:51:06;2.70;99.90
6357;DHT22;3211;53.452;-2.264;2022-12-17T07:53:51;2.70;99.90
6357;DHT22;3211;53.452;-2.264;2022-12-17T07:56:35;2.70;99.90
6357;DHT22;3211;53.452;-2.264;2022-12-17T07:59:21;2.60;99.90
6357;DHT22;3211;53.452;-2.264;2022-12-17T08:02:07;2.70;99.90
6357;DHT22;3211;53.452;-2.264;2022-12-17T08:04:52;2.60;99.90
6357;DHT22;3211;53.452;-2.264;2022-12-17T08:07:36;2.60;99.90
6357;DHT22;3211;53.452;-2.264;2022-12-17T08:10:20;2.60;99.90
6357;DHT22;3211;53.452;-2.264;2022-12-17T08:13:05;2.60;99.90
6357;DHT22;3211;53.452;-2.264;2022-12-17T08:15:52;2.60;99.90
6357;DHT22;3211;53.452;-2.264;2022-12-17T08:18:37;2.60;99.90
6357;DHT22;3211;53.452;-2.264;2022-12-17T08:21:21;2.60;99.90
6357;DHT22;3211;53.452;-2.264;2022-12-17T08:24:06;2.60;99.90
6357;DHT22;3211;53.452;-2.264;2022-12-17T08:26:50;2.60;99.90
6357;DHT22;3211;53.452;-2.264;2022-12-17T08:29:34;2.50;99.90
6357;DHT22;3211;53.452;-2.264;2022-12-17T08:32:20;2.50;99.90
6357;DHT22;3211;53.452;-2.264;2022-12-17T08:35:06;2.60;99.90
6357;DHT22;3211;53.452;-2.264;2022-12-17T08:37:51;2.60;99.90
6357;DHT22;3211;53.452;-2.264;2022-12-17T08:40:35;2.60;99.90
6357;DHT22;3211;53.452;-2.264;2022-12-17T08:43:19;2.60;99.90
6357;DHT22;3211;53.452;-2.264;2022-12-17T08:46:04;2.60;99.90
6357;DHT22;3211;53.452;-2.264;2022-12-17T08:48:50;2.60;99.90
6357;DHT22;3211;53.452;-2.264;2022-12-17T08:51:34;2.60;99.90
6357;DHT22;3211;53.452;-2.264;2022-12-17T08:54:18;2.60;99.90
6357;DHT22;3211;53.452;-2.264;2022-12-17T08:57:22;2.70;99.90
6357;DHT22;3211;53.452;-2.264;2022-12-17T09:00:07;2.60;99.90
6357;DHT22;3211;53.452;-2.264;2022-12-17T09:02:55;2.60;99.90
6357;DHT22;3211;53.452;-2.264;2022-12-17T09:05:41;2.60;99.90
6357;DHT22;3211;53.452;-2.264;2022-12-17T09:08:25;2.60;99.90
6357;DHT22;3211;53.452;-2.264;2022-12-17T09:11:09;2.60;99.90
6357;DHT22;3211;53.452;-2.264;2022-12-17T09:13:54;2.60;99.90
6357;DHT22;3211;53.452;-2.264;2022-12-17T09:16:38;2.60;99.90
6357;DHT22;3211;53.452;-2.264;2022-12-17T09:19:23;2.60;99.90
6357;DHT22;3211;53.452;-2.264;2022-12-17T09:22:08;2.70;99.90
6357;DHT22;3211;53.452;-2.264;2022-12-17T09:24:53;2.70;99.90
6357;DHT22;3211;53.452;-2.264;2022-12-17T09:27:38;2.80;99.90
6357;DHT22;3211;53.452;-2.264;2022-12-17T09:30:22;2.80;99.90
6357;DHT22;3211;53.452;-2.264;2022-12-17T09:33:07;2.80;99.90
6357;DHT22;3211;53.452;-2.264;2022-12-17T09:35:53;2.80;99.90
6357;DHT22;3211;53.452;-2.264;2022-12-17T09:38:38;2.90;99.90
6357;DHT22;3211;53.452;-2.264;2022-12-17T09:41:26;2.90;99.90
6357;DHT22;3211;53.452;-2.264;2022-12-17T09:44:16;2.90;99.90
6357;DHT22;3211;53.452;-2.264;2022-12-17T09:47:06;2.90;99.90
6357;DHT22;3211;53.452;-2.264;2022-12-17T09:49:54;3.00;99.90
6357;DHT22;3211;53.452;-2.264;2022-12-17T09:52:40;3.00;99.90
6357;DHT22;3211;53.452;-2.264;2022-12-17T09:55:28;3.00;99.90
6357;DHT22;3211;53.452;-2.264;2022-12-17T09:58:18;3.10;99.90
6357;DHT22;3211;53.452;-2.264;2022-12-17T10:01:03;3.10;99.90
6357;DHT22;3211;53.452;-2.264;2022-12-17T10:03:48;3.10;99.90
6357;DHT22;3211;53.452;-2.264;2022-12-17T10:06:34;3.20;99.90
6357;DHT22;3211;53.452;-2.264;2022-12-17T10:09:27;3.20;99.90
6357;DHT22;3211;53.452;-2.264;2022-12-17T10:12:16;3.20;99.90
6357;DHT22;3211;53.452;-2.264;2022-12-17T10:15:02;3.30;99.90
6357;DHT22;3211;53.452;-2.264;2022-12-17T10:17:46;3.30;99.90
6357;DHT22;3211;53.452;-2.264;2022-12-17T10:20:34;3.30;99.90
6357;DHT22;3211;53.452;-2.264;2022-12-17T10:23:24;3.40;99.90
6357;DHT22;3211;53.452;-2.264;2022-12-17T10:26:08;3.40;99.90
6357;DHT22;3211;53.452;-2.264;2022-12-17T10:29:03;3.40;99.90
6357;DHT22;3211;53.452;-2.264;2022-12-17T10:31:47;3.50;99.90
6357;DHT22;3211;53.452;-2.264;2022-12-17T10:34:35;3.50;99.90
6357;DHT22;3211;53.452;-2.264;2022-12-17T10:37:20;3.50;99.90
6357;DHT22;3211;53.452;-2.264;2022-12-17T10:40:16;3.60;99.90
6357;DHT22;3211;53.452;-2.264;2022-12-17T10:43:03;3.50;99.90
6357;DHT22;3211;53.452;-2.264;2022-12-17T10:45:55;3.50;99.90
6357;DHT22;3211;53.452;-2.264;2022-12-17T10:48:40;3.50;99.90
6357;DHT22;3211;53.452;-2.264;2022-12-17T10:51:29;3.60;99.90
6357;DHT22;3211;53.452;-2.264;2022-12-17T10:54:21;3.60;99.90
6357;DHT22;3211;53.452;-2.264;2022-12-17T10:57:06;3.60;99.90
6357;DHT22;3211;53.452;-2.264;2022-12-17T10:59:51;3.60;99.90
6357;DHT22;3211;53.452;-2.264;2022-12-17T11:02:36;3.60;99.90
6357;DHT22;3211;53.452;-2.264;2022-12-17T11:05:25;3.70;99.90
6357;DHT22;3211;53.452;-2.264;2022-12-17T11:08:12;3.70;99.90
6357;DHT22;3211;53.452;-2.264;2022-12-17T11:10:58;3.70;99.90
6357;DHT22;3211;53.452;-2.264;2022-12-17T11:13:45;3.70;99.90
6357;DHT22;3211;53.452;-2.264;2022-12-17T11:16:32;3.70;99.90
6357;DHT22;3211;53.452;-2.264;2022-12-17T11:19:31;3.70;99.90
6357;DHT22;3211;53.452;-2.264;2022-12-17T11:22:27;3.70;99.90
6357;DHT22;3211;53.452;-2.264;2022-12-17T11:25:25;3.70;99.90
6357;DHT22;3211;53.452;-2.264;2022-12-17T11:28:15;3.70;99.90
6357;DHT22;3211;53.452;-2.264;2022-12-17T11:31:09;3.70;99.90
6357;DHT22;3211;53.452;-2.264;2022-12-17T11:34:04;3.70;99.90
6357;DHT22;3211;53.452;-2.264;2022-12-17T11:36:58;3.70;99.90
6357;DHT22;3211;53.452;-2.264;2022-12-17T11:39:51;3.80;99.90
6357;DHT22;3211;53.452;-2.264;2022-12-17T11:42:42;3.80;99.90
6357;DHT22;3211;53.452;-2.264;2022-12-17T11:45:32;3.80;99.90
6357;DHT22;3211;53.452;-2.264;2022-12-17T11:48:23;3.80;99.90
6357;DHT22;3211;53.452;-2.264;2022-12-17T11:51:15;3.80;99.90
6357;DHT22;3211;53.452;-2.264;2022-12-17T11:54:07;3.80;99.90
6357;DHT22;3211;53.452;-2.264;2022-12-17T11:57:10;3.80;99.90
6357;DHT22;3211;53.452;-2.264;2022-12-17T12:00:01;3.80;99.90
6357;DHT22;3211;53.452;-2.264;2022-12-17T12:02:54;3.80;99.90
6357;DHT22;3211;53.452;-2.264;2022-12-17T12:05:48;3.90;99.90
6357;DHT22;3211;53.452;-2.264;2022-12-17T12:08:36;3.90;99.90
6357;DHT22;3211;53.452;-2.264;2022-12-17T12:11:28;3.80;99.90
6357;DHT22;3211;53.452;-2.264;2022-12-17T12:14:23;3.90;99.90
6357;DHT22;3211;53.452;-2.264;2022-12-17T12:17:28;3.90;99.90
6357;DHT22;3211;53.452;-2.264;2022-12-17T12:20:26;3.90;99.90
6357;DHT22;3211;53.452;-2.264;2022-12-17T12:23:20;3.90;99.90
6357;DHT22;3211;53.452;-2.264;2022-12-17T12:26:17;3.90;99.90
6357;DHT22;3211;53.452;-2.264;2022-12-17T12:29:09;4.00;99.90
6357;DHT22;3211;53.452;-2.264;2022-12-17T12:32:03;4.00;99.90
6357;DHT22;3211;53.452;-2.264;2022-12-17T12:34:51;4.00;99.90
6357;DHT22;3211;53.452;-2.264;2022-12-17T12:37:41;4.00;99.90
6357;DHT22;3211;53.452;-2.264;2022-12-17T12:40:31;4.00;99.90
6357;DHT22;3211;53.452;-2.264;2022-12-17T12:43:21;4.00;99.90
6357;DHT22;3211;53.452;-2.264;2022-12-17T12:46:14;4.00;99.90
6357;DHT22;3211;53.452;-2.264;2022-12-17T12:49:04;4.00;99.90
6357;DHT22;3211;53.452;-2.264;2022-12-17T12:51:53;4.00;99.90
6357;DHT22;3211;53.452;-2.264;2022-12-17T12:54:51;4.00;99.90
6357;DHT22;3211;53.452;-2.264;2022-12-17T12:57:37;4.00;99.90
6357;DHT22;3211;53.452;-2.264;2022-12-17T13:00:28;4.10;99.90
6357;DHT22;3211;53.452;-2.264;2022-12-17T13:03:22;4.10;99.90
6357;DHT22;3211;53.452;-2.264;2022-12-17T13:06:08;4.00;99.90
6357;DHT22;3211;53.452;-2.264;2022-12-17T13:08:35;4.10;99.90
6357;DHT22;3211;53.452;-2.264;2022-12-17T13:11:10;4.10;99.90
6357;DHT22;3211;53.452;-2.264;2022-12-17T13:13:40;4.10;99.90
6357;DHT22;3211;53.452;-2.264;2022-12-17T13:16:32;4.10;99.90
6357;DHT22;3211;53.452;-2.264;2022-12-17T13:19:20;4.10;99.90
6357;DHT22;3211;53.452;-2.264;2022-12-17T13:22:09;4.10;99.90
6357;DHT22;3211;53.452;-2.264;2022-12-17T13:24:37;4.10;99.90
6357;DHT22;3211;53.452;-2.264;2022-12-17T13:27:04;4.00;99.90
6357;DHT22;3211;53.452;-2.264;2022-12-17T13:29:33;4.00;99.90
6357;DHT22;3211;53.452;-2.264;2022-12-17T13:32:08;4.00;99.90
6357;DHT22;3211;53.452;-2.264;2022-12-17T13:34:50;4.10;99.90
6357;DHT22;3211;53.452;-2.264;2022-12-17T13:37:30;4.00;99.90
6357;DHT22;3211;53.452;-2.264;2022-12-17T13:40:18;4.10;99.90
6357;DHT22;3211;53.452;-2.264;2022-12-17T13:42:46;4.10;99.90
6357;DHT22;3211;53.452;-2.264;2022-12-17T13:45:15;4.10;99.90
6357;DHT22;3211;53.452;-2.264;2022-12-17T13:47:42;4.10;99.90
6357;DHT22;3211;53.452;-2.264;2022-12-17T13:50:21;4.10;99.90
6357;DHT22;3211;53.452;-2.264;2022-12-17T13:52:48;4.10;99.90
6357;DHT22;3211;53.452;-2.264;2022-12-17T13:55:18;4.20;99.90
6357;DHT22;3211;53.452;-2.264;2022-12-17T13:57:46;4.10;99.90
6357;DHT22;3211;53.452;-2.264;2022-12-17T14:00:22;4.10;99.90
6357;DHT22;3211;53.452;-2.264;2022-12-17T14:02:50;4.10;99.90
6357;DHT22;3211;53.452;-2.264;2022-12-17T14:05:25;4.10;99.90
6357;DHT22;3211;53.452;-2.264;2022-12-17T14:07:53;4.00;99.90
6357;DHT22;3211;53.452;-2.264;2022-12-17T14:10:20;4.00;99.90
6357;DHT22;3211;53.452;-2.264;2022-12-17T14:12:47;4.00;99.90
6357;DHT22;3211;53.452;-2.264;2022-12-17T14:15:21;4.00;99.90
6357;DHT22;3211;53.452;-2.264;2022-12-17T14:17:50;3.90;99.90
6357;DHT22;3211;53.452;-2.264;2022-12-17T14:20:20;3.90;99.90
6357;DHT22;3211;53.452;-2.264;2022-12-17T14:22:51;3.90;99.90
6357;DHT22;3211;53.452;-2.264;2022-12-17T14:25:21;3.90;99.90
6357;DHT22;3211;53.452;-2.264;2022-12-17T14:27:52;3.90;99.90
6357;DHT22;3211;53.452;-2.264;2022-12-17T14:30:22;3.90;99.90
6357;DHT22;3211;53.452;-2.264;2022-12-17T14:32:49;3.90;99.90
6357;DHT22;3211;53.452;-2.264;2022-12-17T14:35:27;3.90;99.90
6357;DHT22;3211;53.452;-2.264;2022-12-17T14:37:56;3.90;99.90
6357;DHT22;3211;53.452;-2.264;2022-12-17T14:40:24;3.90;99.90
6357;DHT22;3211;53.452;-2.264;2022-12-17T14:42:57;3.90;99.90
6357;DHT22;3211;53.452;-2.264;2022-12-17T14:45:26;3.80;99.90
6357;DHT22;3211;53.452;-2.264;2022-12-17T14:47:55;3.90;99.90
6357;DHT22;3211;53.452;-2.264;2022-12-17T14:50:29;3.90;99.90
6357;DHT22;3211;53.452;-2.264;2022-12-17T14:52:59;3.90;99.90
6357;DHT22;3211;53.452;-2.264;2022-12-17T14:55:33;3.90;99.90
6357;DHT22;3211;53.452;-2.264;2022-12-17T14:58:13;3.90;99.90
6357;DHT22;3211;53.452;-2.264;2022-12-17T15:00:43;3.90;99.90
6357;DHT22;3211;53.452;-2.264;2022-12-17T15:03:13;3.90;99.90
6357;DHT22;3211;53.452;-2.264;2022-12-17T15:05:42;3.90;99.90
6357;DHT22;3211;53.452;-2.264;2022-12-17T15:08:12;3.90;99.90
6357;DHT22;3211;53.452;-2.264;2022-12-17T15:10:39;3.90;99.90
6357;DHT22;3211;53.452;-2.264;2022-12-17T15:13:06;3.90;99.90
6357;DHT22;3211;53.452;-2.264;2022-12-17T15:15:33;3.90;99.90
6357;DHT22;3211;53.452;-2.264;2022-12-17T15:18:00;3.90;99.90
6357;DHT22;3211;53.452;-2.264;2022-12-17T15:20:27;3.90;99.90
6357;DHT22;3211;53.452;-2.264;2022-12-17T15:22:54;4.00;99.90
6357;DHT22;3211;53.452;-2.264;2022-12-17T15:25:22;4.00;99.90
6357;DHT22;3211;53.452;-2.264;2022-12-17T15:27:50;3.90;99.90
6357;DHT22;3211;53.452;-2.264;2022-12-17T15:30:18;3.90;99.90
6357;DHT22;3211;53.452;-2.264;2022-12-17T15:32:46;3.90;99.90
6357;DHT22;3211;53.452;-2.264;2022-12-17T15:35:13;3.90;99.90
6357;DHT22;3211;53.452;-2.264;2022-12-17T15:37:40;3.90;99.90
6357;DHT22;3211;53.452;-2.264;2022-12-17T15:40:08;3.80;99.90
6357;DHT22;3211;53.452;-2.264;2022-12-17T15:42:38;3.90;99.90
6357;DHT22;3211;53.452;-2.264;2022-12-17T15:45:23;3.80;99.90
6357;DHT22;3211;53.452;-2.264;2022-12-17T15:47:50;3.80;99.90
6357;DHT22;3211;53.452;-2.264;2022-12-17T15:50:17;3.90;99.90
6357;DHT22;3211;53.452;-2.264;2022-12-17T15:52:44;3.90;99.90
6357;DHT22;3211;53.452;-2.264;2022-12-17T15:55:11;3.90;99.90
6357;DHT22;3211;53.452;-2.264;2022-12-17T15:57:40;4.00;99.90
6357;DHT22;3211;53.452;-2.264;2022-12-17T16:00:08;4.00;99.90
6357;DHT22;3211;53.452;-2.264;2022-12-17T16:02:35;3.90;99.90
6357;DHT22;3211;53.452;-2.264;2022-12-17T16:05:02;3.90;99.90
6357;DHT22;3211;53.452;-2.264;2022-12-17T16:07:30;3.90;99.90
6357;DHT22;3211;53.452;-2.264;2022-12-17T16:09:57;3.90;99.90
6357;DHT22;3211;53.452;-2.264;2022-12-17T16:12:24;3.90;99.90
6357;DHT22;3211;53.452;-2.264;2022-12-17T16:14:52;3.90;99.90
6357;DHT22;3211;53.452;-2.264;2022-12-17T16:17:19;3.80;99.90
6357;DHT22;3211;53.452;-2.264;2022-12-17T16:19:46;3.80;99.90
6357;DHT22;3211;53.452;-2.264;2022-12-17T16:22:13;3.90;99.90
6357;DHT22;3211;53.452;-2.264;2022-12-17T16:24:41;3.90;99.90
6357;DHT22;3211;53.452;-2.264;2022-12-17T16:27:08;3.90;99.90
6357;DHT22;3211;53.452;-2.264;2022-12-17T16:29:34;3.90;99.90
6357;DHT22;3211;53.452;-2.264;2022-12-17T16:32:03;3.80;99.90
6357;DHT22;3211;53.452;-2.264;2022-12-17T16:34:31;3.80;99.90
6357;DHT22;3211;53.452;-2.264;2022-12-17T16:36:58;3.80;99.90
6357;DHT22;3211;53.452;-2.264;2022-12-17T16:39:26;3.80;99.90
6357;DHT22;3211;53.452;-2.264;2022-12-17T16:41:53;3.80;99.90
6357;DHT22;3211;53.452;-2.264;2022-12-17T16:44:20;3.80;99.90
6357;DHT22;3211;53.452;-2.264;2022-12-17T16:46:47;3.80;99.90
6357;DHT22;3211;53.452;-2.264;2022-12-17T16:49:17;3.90;99.90
6357;DHT22;3211;53.452;-2.264;2022-12-17T16:51:47;3.90;99.90
6357;DHT22;3211;53.452;-2.264;2022-12-17T16:54:15;3.90;99.90
6357;DHT22;3211;53.452;-2.264;2022-12-17T16:56:44;4.00;99.90
6357;DHT22;3211;53.452;-2.264;2022-12-17T16:59:12;4.00;99.90
6357;DHT22;3211;53.452;-2.264;2022-12-17T17:01:43;4.00;99.90
6357;DHT22;3211;53.452;-2.264;2022-12-17T17:04:10;4.00;99.90
6357;DHT22;3211;53.452;-2.264;2022-12-17T17:06:40;4.10;99.90
6357;DHT22;3211;53.452;-2.264;2022-12-17T17:09:10;4.10;99.90
6357;DHT22;3211;53.452;-2.264;2022-12-17T17:11:37;4.10;99.90
6357;DHT22;3211;53.452;-2.264;2022-12-17T17:14:06;4.10;99.90
6357;DHT22;3211;53.452;-2.264;2022-12-17T17:16:33;4.10;99.90
6357;DHT22;3211;53.452;-2.264;2022-12-17T17:19:00;4.20;99.90
6357;DHT22;3211;53.452;-2.264;2022-12-17T17:21:29;4.10;99.90
6357;DHT22;3211;53.452;-2.264;2022-12-17T17:23:59;4.10;99.90
6357;DHT22;3211;53.452;-2.264;2022-12-17T17:26:27;4.10;99.90
6357;DHT22;3211;53.452;-2.264;2022-12-17T17:28:55;4.10;99.90
6357;DHT22;3211;53.452;-2.264;2022-12-17T17:31:22;4.10;99.90
6357;DHT22;3211;53.452;-2.264;2022-12-17T17:33:50;4.20;99.90
6357;DHT22;3211;53.452;-2.264;2022-12-17T17:36:20;4.20;99.90
6357;DHT22;3211;53.452;-2.264;2022-12-17T17:38:48;4.20;99.90